createdAt,value
2018-07-07T00:00:59.573Z,85.50
2018-07-07T00:03:27.837Z,85.70
2018-07-07T00:05:56.096Z,85.90
2018-07-07T00:08:24.349Z,86.20
2018-07-07T00:10:55.215Z,86.60
2018-07-07T00:13:23.503Z,86.60
2018-07-07T00:15:51.759Z,86.50
2018-07-07T00:18:20.035Z,86.50
2018-07-07T00:20:48.304Z,86.70
2018-07-07T00:23:16.502Z,86.80
2018-07-07T00:25:44.691Z,87.00
2018-07-07T00:30:41.023Z,87.30
2018-07-07T00:33:09.291Z,87.40
2018-07-07T00:35:37.521Z,87.60
2018-07-07T00:38:05.939Z,88.00
2018-07-07T00:40:34.231Z,87.90
2018-07-07T00:43:03.345Z,88.00
2018-07-07T00:45:31.532Z,88.10
2018-07-07T00:47:59.795Z,88.20
2018-07-07T00:50:28.053Z,88.30
2018-07-07T00:52:56.309Z,88.50
2018-07-07T00:55:24.523Z,88.50
2018-07-07T00:57:52.769Z,88.60
2018-07-07T01:00:21.964Z,88.80
2018-07-07T01:02:50.231Z,88.90
2018-07-07T01:05:29.657Z,89.20
2018-07-07T01:07:58.097Z,89.20
2018-07-07T01:10:26.336Z,89.30
2018-07-07T01:12:54.607Z,89.40
2018-07-07T01:15:22.879Z,89.40
2018-07-07T01:17:51.141Z,89.70
2018-07-07T01:20:19.425Z,89.70
2018-07-07T01:22:47.623Z,89.70
2018-07-07T01:25:15.795Z,89.70
2018-07-07T01:27:43.991Z,89.80
2018-07-07T01:30:12.191Z,90.00
2018-07-07T01:32:40.449Z,90.00
2018-07-07T01:35:08.713Z,90.10
2018-07-07T01:37:36.997Z,90.10
2018-07-07T01:40:05.191Z,90.10
2018-07-07T01:42:33.457Z,90.20
2018-07-07T01:45:01.733Z,90.30
2018-07-07T01:47:29.926Z,90.30
2018-07-07T01:49:58.207Z,90.40
2018-07-07T01:52:26.456Z,90.40
2018-07-07T01:54:54.671Z,90.50
2018-07-07T01:57:22.867Z,90.50
2018-07-07T01:59:51.056Z,90.90
2018-07-07T02:02:19.325Z,90.70
2018-07-07T02:04:47.496Z,90.90
2018-07-07T02:07:15.767Z,90.90
2018-07-07T02:09:44.015Z,91.00
2018-07-07T02:12:12.199Z,91.10
2018-07-07T02:14:40.507Z,91.10
2018-07-07T02:17:08.958Z,91.20
2018-07-07T02:19:37.224Z,91.10
2018-07-07T02:22:05.402Z,91.10
2018-07-07T02:24:33.686Z,91.10
2018-07-07T02:27:01.933Z,91.20
2018-07-07T02:31:58.494Z,91.20
2018-07-07T02:36:54.972Z,91.30
2018-07-07T02:39:23.214Z,91.30
2018-07-07T02:41:51.494Z,91.30
2018-07-07T02:44:19.767Z,91.40
2018-07-07T02:46:48.037Z,91.40
2018-07-07T02:49:16.285Z,91.50
2018-07-07T02:51:44.569Z,91.50
2018-07-07T02:54:12.756Z,91.60
2018-07-07T02:56:40.960Z,91.60
2018-07-07T02:59:09.215Z,91.80
2018-07-07T03:01:37.407Z,91.80
2018-07-07T03:04:05.689Z,91.80
2018-07-07T03:06:33.867Z,91.80
2018-07-07T03:09:02.131Z,91.90
2018-07-07T03:11:30.410Z,92.00
2018-07-07T03:13:58.643Z,92.00
2018-07-07T03:16:26.924Z,92.10
2018-07-07T03:18:55.198Z,92.10
2018-07-07T03:21:23.481Z,92.20
2018-07-07T03:23:51.646Z,92.20
2018-07-07T03:26:20.147Z,92.20
2018-07-07T03:28:48.356Z,92.20
2018-07-07T03:31:16.616Z,92.30
2018-07-07T03:33:44.897Z,92.40
2018-07-07T03:36:13.117Z,92.50
2018-07-07T03:38:41.352Z,92.60
2018-07-07T03:41:09.595Z,92.80
2018-07-07T03:43:37.836Z,92.90
2018-07-07T03:46:06.075Z,92.90
2018-07-07T03:48:34.322Z,93.00
2018-07-07T03:51:02.592Z,93.00
2018-07-07T03:53:30.841Z,93.00
2018-07-07T03:55:59.083Z,92.90
2018-07-07T03:58:27.355Z,92.90
2018-07-07T04:00:55.695Z,92.90
2018-07-07T04:03:24.089Z,92.80
2018-07-07T04:05:52.312Z,92.80
2018-07-07T04:08:20.601Z,92.80
2018-07-07T04:10:48.867Z,92.90
2018-07-07T04:13:17.149Z,92.90
2018-07-07T04:15:45.433Z,92.90
2018-07-07T04:18:13.695Z,93.00
2018-07-07T04:20:41.903Z,93.00
2018-07-07T04:23:10.133Z,93.00
2018-07-07T04:25:38.323Z,93.00
2018-07-07T04:28:06.611Z,93.00
2018-07-07T04:30:34.891Z,93.00
2018-07-07T04:33:03.019Z,92.90
2018-07-07T04:35:31.268Z,92.90
2018-07-07T04:37:59.527Z,92.90
2018-07-07T04:40:27.711Z,92.90
2018-07-07T04:42:55.943Z,93.00
2018-07-07T04:45:24.202Z,93.00
2018-07-07T04:47:52.393Z,93.10
2018-07-07T04:50:20.649Z,93.10
2018-07-07T04:52:48.889Z,93.20
2018-07-07T04:55:17.087Z,93.10
2018-07-07T04:57:45.341Z,93.10
2018-07-07T05:00:13.643Z,93.10
2018-07-07T05:02:41.899Z,93.10
2018-07-07T05:05:10.165Z,92.90
2018-07-07T05:07:38.420Z,92.60
2018-07-07T05:10:06.841Z,92.30
2018-07-07T05:12:35.035Z,92.20
2018-07-07T05:15:03.299Z,92.10
2018-07-07T05:17:31.597Z,92.10
2018-07-07T05:19:59.775Z,92.00
2018-07-07T05:22:27.987Z,92.00
2018-07-07T05:24:56.200Z,92.00
2018-07-07T05:27:24.610Z,92.00
2018-07-07T05:29:52.899Z,91.90
2018-07-07T05:32:21.163Z,91.80
2018-07-07T05:34:49.533Z,91.70
2018-07-07T05:37:17.846Z,91.70
2018-07-07T05:39:46.096Z,91.70
2018-07-07T05:42:14.302Z,91.60
2018-07-07T05:44:42.552Z,91.50
2018-07-07T05:47:10.932Z,91.50
2018-07-07T05:49:39.129Z,91.50
2018-07-07T05:52:07.399Z,91.30
2018-07-07T05:54:35.623Z,91.30
2018-07-07T05:57:04.088Z,91.30
2018-07-07T05:59:32.331Z,91.30
2018-07-07T06:02:00.737Z,91.20
2018-07-07T06:04:29.027Z,91.10
2018-07-07T06:06:57.413Z,91.10
2018-07-07T06:09:25.618Z,90.90
2018-07-07T06:11:53.877Z,90.60
2018-07-07T06:14:22.135Z,90.10
2018-07-07T06:16:50.391Z,88.10
2018-07-07T06:19:18.586Z,88.40
2018-07-07T06:21:46.782Z,88.30
2018-07-07T06:24:15.720Z,85.60
2018-07-07T06:26:43.952Z,85.10
2018-07-07T06:29:12.156Z,84.20
2018-07-07T06:31:40.399Z,83.00
2018-07-07T06:34:08.674Z,82.10
2018-07-07T06:36:36.920Z,81.80
2018-07-07T06:39:05.893Z,81.10
2018-07-07T06:41:34.089Z,80.60
2018-07-07T06:44:02.359Z,80.20
2018-07-07T06:46:30.571Z,78.40
2018-07-07T06:48:59.002Z,77.10
2018-07-07T06:53:56.015Z,75.00
2018-07-07T06:58:52.364Z,73.10
2018-07-07T07:01:20.552Z,72.30
2018-07-07T07:03:48.799Z,71.90
2018-07-07T07:06:17.048Z,70.60
2018-07-07T07:08:45.301Z,70.20
2018-07-07T07:11:13.508Z,69.40
2018-07-07T07:13:41.694Z,68.50
2018-07-07T07:16:09.904Z,68.00
2018-07-07T07:18:38.174Z,67.20
2018-07-07T07:21:06.431Z,66.40
2018-07-07T07:23:34.626Z,65.40
2018-07-07T07:26:02.837Z,63.90
2018-07-07T07:28:31.092Z,63.90
2018-07-07T07:30:59.342Z,64.70
2018-07-07T07:33:27.516Z,64.90
2018-07-07T07:35:55.737Z,63.50
2018-07-07T07:38:23.980Z,64.30
2018-07-07T07:40:52.246Z,63.10
2018-07-07T07:43:20.536Z,63.00
2018-07-07T07:45:48.792Z,62.70
2018-07-07T07:48:17.012Z,62.30
2018-07-07T07:50:45.264Z,62.30
2018-07-07T07:53:13.549Z,60.00
2018-07-07T07:55:41.776Z,60.40
2018-07-07T07:58:10.030Z,60.10
2018-07-07T08:00:38.258Z,60.20
2018-07-07T08:03:06.826Z,58.30
2018-07-07T08:05:35.091Z,57.00
2018-07-07T08:08:03.505Z,57.70
2018-07-07T08:10:31.850Z,57.90
2018-07-07T08:13:00.109Z,57.20
2018-07-07T08:15:28.318Z,56.50
2018-07-07T08:17:56.599Z,56.70
2018-07-07T08:20:24.814Z,56.30
2018-07-07T08:22:53.075Z,55.90
2018-07-07T08:25:21.292Z,56.40
2018-07-07T08:27:49.475Z,55.80
2018-07-07T08:30:17.732Z,55.20
2018-07-07T08:32:45.980Z,55.10
2018-07-07T08:37:42.338Z,55.20
2018-07-07T08:40:12.474Z,54.00
2018-07-07T08:45:09.006Z,54.10
2018-07-07T08:47:37.204Z,53.60
2018-07-07T08:50:05.435Z,53.70
2018-07-07T08:52:33.598Z,53.50
2018-07-07T08:55:01.883Z,53.40
2018-07-07T08:57:30.614Z,53.90
2018-07-07T08:59:59.154Z,52.90
2018-07-07T09:02:27.920Z,53.00
2018-07-07T09:04:56.178Z,52.60
2018-07-07T09:07:24.404Z,51.80
2018-07-07T09:09:52.616Z,51.60
2018-07-07T09:12:20.902Z,51.90
2018-07-07T09:14:49.096Z,50.80
2018-07-07T09:17:17.368Z,50.70
2018-07-07T09:19:45.572Z,50.50
2018-07-07T09:22:13.846Z,50.30
2018-07-07T09:24:42.068Z,49.70
2018-07-07T09:27:10.652Z,50.00
2018-07-07T09:29:38.924Z,50.10
2018-07-07T09:32:07.190Z,50.10
2018-07-07T09:34:35.406Z,50.80
2018-07-07T09:37:03.662Z,51.00
2018-07-07T09:39:31.894Z,51.20
2018-07-07T09:42:00.161Z,51.10
2018-07-07T09:44:28.418Z,51.30
2018-07-07T09:46:56.709Z,51.30
2018-07-07T09:49:24.985Z,50.90
2018-07-07T09:51:53.241Z,50.70
2018-07-07T09:54:21.436Z,50.70
2018-07-07T09:56:49.627Z,51.50
2018-07-07T09:59:17.883Z,50.70
2018-07-07T10:01:46.157Z,50.50
2018-07-07T10:04:16.760Z,50.60
2018-07-07T10:06:44.935Z,50.20
2018-07-07T10:09:13.160Z,49.50
2018-07-07T10:11:41.453Z,49.00
2018-07-07T10:14:09.707Z,48.30
2018-07-07T10:16:37.946Z,47.80
2018-07-07T10:19:06.134Z,47.70
2018-07-07T10:21:34.404Z,46.50
2018-07-07T10:24:02.694Z,45.80
2018-07-07T10:26:30.962Z,44.70
2018-07-07T10:28:59.400Z,44.90
2018-07-07T10:31:27.737Z,44.20
2018-07-07T10:33:55.989Z,43.00
2018-07-07T10:36:24.185Z,42.90
2018-07-07T10:38:52.395Z,41.80
2018-07-07T10:41:20.616Z,40.80
2018-07-07T10:43:48.896Z,39.70
2018-07-07T10:46:17.137Z,39.40
2018-07-07T10:48:45.351Z,37.30
2018-07-07T10:51:13.549Z,38.30
2018-07-07T10:53:41.835Z,38.60
2018-07-07T10:56:10.079Z,37.90
2018-07-07T10:58:38.360Z,36.70
2018-07-07T11:01:06.555Z,35.90
2018-07-07T11:03:34.844Z,35.90
2018-07-07T11:06:03.109Z,36.70
2018-07-07T11:08:31.348Z,37.60
2018-07-07T11:10:59.661Z,39.00
2018-07-07T11:13:27.941Z,40.20
2018-07-07T11:15:56.205Z,41.20
2018-07-07T11:18:24.731Z,41.90
2018-07-07T11:20:52.915Z,41.20
2018-07-07T11:23:21.248Z,39.80
2018-07-07T11:25:49.507Z,38.70
2018-07-07T11:28:17.753Z,37.70
2018-07-07T11:30:46.034Z,36.30
2018-07-07T11:33:14.283Z,36.70
2018-07-07T11:35:42.500Z,37.40
2018-07-07T11:38:10.792Z,39.00
2018-07-07T11:40:39.063Z,40.40
2018-07-07T11:43:07.290Z,41.40
2018-07-07T11:45:35.653Z,41.90
2018-07-07T11:48:03.962Z,42.50
2018-07-07T11:50:32.257Z,42.40
2018-07-07T11:53:00.424Z,41.30
2018-07-07T11:55:28.642Z,39.30
2018-07-07T11:57:56.905Z,38.60
2018-07-07T12:00:25.095Z,37.90
2018-07-07T12:02:53.350Z,37.60
2018-07-07T12:05:21.549Z,37.50
2018-07-07T12:08:00.712Z,35.40
2018-07-07T12:10:18.044Z,36.30
2018-07-07T12:12:46.253Z,38.30
2018-07-07T12:15:14.499Z,39.40
2018-07-07T12:17:42.757Z,40.00
2018-07-07T12:20:11.127Z,39.00
2018-07-07T12:22:39.411Z,38.30
2018-07-07T12:25:07.730Z,39.10
2018-07-07T12:27:35.999Z,39.70
2018-07-07T12:30:04.737Z,40.00
2018-07-07T12:32:33.006Z,40.20
2018-07-07T12:35:01.278Z,40.00
2018-07-07T12:37:29.574Z,39.90
2018-07-07T12:39:57.818Z,39.80
2018-07-07T12:42:26.032Z,39.10
2018-07-07T12:44:54.258Z,37.70
2018-07-07T12:47:22.618Z,36.50
2018-07-07T12:49:50.820Z,36.10
2018-07-07T12:52:19.100Z,36.30
2018-07-07T12:54:47.351Z,35.90
2018-07-07T12:57:15.579Z,36.70
2018-07-07T12:59:43.775Z,37.40
2018-07-07T13:02:12.232Z,37.90
2018-07-07T13:04:40.432Z,38.90
2018-07-07T13:07:08.976Z,39.80
2018-07-07T13:09:37.194Z,39.80
2018-07-07T13:12:05.494Z,39.00
2018-07-07T13:14:33.766Z,37.50
2018-07-07T13:17:02.038Z,34.80
2018-07-07T13:19:30.233Z,33.70
2018-07-07T13:21:58.824Z,33.90
2018-07-07T13:24:27.075Z,34.40
2018-07-07T13:26:55.456Z,35.00
2018-07-07T13:29:23.618Z,34.20
2018-07-07T13:31:51.850Z,34.10
2018-07-07T13:34:20.078Z,34.10
2018-07-07T13:36:48.304Z,34.60
2018-07-07T13:39:16.512Z,35.00
2018-07-07T13:41:44.719Z,35.80
2018-07-07T13:44:12.947Z,37.10
2018-07-07T13:46:41.213Z,38.30
2018-07-07T13:49:09.472Z,38.80
2018-07-07T13:51:37.740Z,37.80
2018-07-07T13:54:06.294Z,37.30
2018-07-07T13:56:34.562Z,36.30
2018-07-07T13:59:02.861Z,37.40
2018-07-07T14:01:31.040Z,37.30
2018-07-07T14:03:59.304Z,36.50
2018-07-07T14:06:27.591Z,35.00
2018-07-07T14:08:55.842Z,34.60
2018-07-07T14:11:24.016Z,34.50
2018-07-07T14:13:52.372Z,34.50
2018-07-07T14:16:20.722Z,34.40
2018-07-07T14:18:48.976Z,33.90
2018-07-07T14:21:17.236Z,34.00
2018-07-07T14:23:45.496Z,34.80
2018-07-07T14:26:13.804Z,34.80
2018-07-07T14:28:42.088Z,35.10
2018-07-07T14:31:10.336Z,35.70
2018-07-07T14:33:38.614Z,35.70
2018-07-07T14:38:38.273Z,36.10
2018-07-07T14:41:14.024Z,36.70
2018-07-07T14:43:55.568Z,36.70
2018-07-07T14:46:24.275Z,36.70
2018-07-07T14:51:20.590Z,38.20
2018-07-07T14:53:49.206Z,39.00
2018-07-07T14:56:18.809Z,39.70
2018-07-07T14:58:47.210Z,40.00
2018-07-07T15:03:43.661Z,39.80
2018-07-07T15:06:12.085Z,39.60
2018-07-07T15:08:40.397Z,40.20
2018-07-07T15:11:09.000Z,39.80
2018-07-07T15:13:37.278Z,39.80
2018-07-07T15:16:05.526Z,39.90
2018-07-07T15:18:34.564Z,40.20
2018-07-07T15:21:03.292Z,39.90
2018-07-07T15:23:31.740Z,39.90
2018-07-07T15:28:28.118Z,39.90
2018-07-07T15:30:56.398Z,39.10
2018-07-07T15:33:24.682Z,39.70
2018-07-07T15:35:52.914Z,40.00
2018-07-07T15:38:21.186Z,40.20
2018-07-07T15:40:49.978Z,39.90
2018-07-07T15:43:18.291Z,39.70
2018-07-07T15:45:46.520Z,39.80
2018-07-07T15:48:14.796Z,39.90
2018-07-07T15:50:43.082Z,40.20
2018-07-07T15:53:11.356Z,40.50
2018-07-07T15:55:39.616Z,40.00
2018-07-07T15:58:07.862Z,39.70
2018-07-07T16:00:36.143Z,40.00
2018-07-07T16:03:04.413Z,39.70
2018-07-07T16:05:32.657Z,39.80
2018-07-07T16:10:29.013Z,39.90
2018-07-07T16:12:57.218Z,39.50
2018-07-07T16:15:25.547Z,39.80
2018-07-07T16:17:55.035Z,39.80
2018-07-07T16:20:24.980Z,40.10
2018-07-07T16:22:53.204Z,40.30
2018-07-07T16:25:21.477Z,39.90
2018-07-07T16:27:49.738Z,40.20
2018-07-07T16:32:46.112Z,39.90
2018-07-07T16:35:14.396Z,39.90
2018-07-07T16:37:42.653Z,40.00
2018-07-07T16:40:10.976Z,40.20
2018-07-07T16:42:39.657Z,40.60
2018-07-07T16:45:08.245Z,40.40
2018-07-07T16:47:36.727Z,40.20
2018-07-07T16:50:05.035Z,40.10
2018-07-07T16:52:33.236Z,40.50
2018-07-07T16:55:01.565Z,40.60
2018-07-07T16:57:29.892Z,40.60
2018-07-07T16:59:58.623Z,40.50
2018-07-07T17:04:54.893Z,40.40
2018-07-07T17:07:23.213Z,40.30
2018-07-07T17:09:51.689Z,40.20
2018-07-07T17:12:19.901Z,40.00
2018-07-07T17:14:48.159Z,40.30
2018-07-07T17:17:16.441Z,40.10
2018-07-07T17:19:44.671Z,40.10
2018-07-07T17:22:12.995Z,40.30
2018-07-07T17:24:41.615Z,40.20
2018-07-07T17:27:10.107Z,39.50
2018-07-07T17:29:38.415Z,39.20
2018-07-07T17:32:07.050Z,39.70
2018-07-07T17:34:35.344Z,38.90
2018-07-07T17:37:03.879Z,39.10
2018-07-07T17:39:32.051Z,39.30
2018-07-07T17:42:00.340Z,39.30
2018-07-07T17:44:28.585Z,39.40
2018-07-07T17:46:56.925Z,39.40
2018-07-07T17:49:25.248Z,39.40
2018-07-07T17:51:53.520Z,39.40
2018-07-07T17:54:21.807Z,39.40
2018-07-07T17:56:50.101Z,39.30
2018-07-07T17:59:18.291Z,39.30
2018-07-07T18:01:46.733Z,39.20
2018-07-07T18:04:15.012Z,39.10
2018-07-07T18:06:43.188Z,39.20
2018-07-07T18:09:11.381Z,39.10
2018-07-07T18:11:39.724Z,39.30
2018-07-07T18:14:08.123Z,39.50
2018-07-07T18:16:36.462Z,39.50
2018-07-07T18:19:05.058Z,39.70
2018-07-07T18:21:33.252Z,39.80
2018-07-07T18:24:01.524Z,39.80
2018-07-07T18:26:30.042Z,39.90
2018-07-07T18:31:26.177Z,40.30
2018-07-07T18:33:54.460Z,40.60
2018-07-07T18:36:22.722Z,40.80
2018-07-07T18:41:19.074Z,40.80
2018-07-07T18:43:47.345Z,41.00
2018-07-07T18:46:15.540Z,41.20
2018-07-07T18:48:44.045Z,41.40
2018-07-07T18:51:12.238Z,41.40
2018-07-07T18:53:40.432Z,41.70
2018-07-07T18:56:08.652Z,41.90
2018-07-07T18:58:36.944Z,42.00
2018-07-07T19:01:05.189Z,42.00
2018-07-07T19:03:33.369Z,42.40
2018-07-07T19:06:01.604Z,42.50
2018-07-07T19:08:29.895Z,42.60
2018-07-07T19:10:58.141Z,42.80
2018-07-07T19:13:26.371Z,42.80
2018-07-07T19:15:54.637Z,43.00
2018-07-07T19:18:22.922Z,43.20
2018-07-07T19:20:56.413Z,43.30
2018-07-07T19:23:30.127Z,43.60
2018-07-07T19:26:03.773Z,43.80
2018-07-07T19:28:32.094Z,43.90
2018-07-07T19:31:00.323Z,44.10
2018-07-07T19:33:33.993Z,44.30
2018-07-07T19:36:07.621Z,44.50
2018-07-07T19:38:35.863Z,44.70
2018-07-07T19:41:04.083Z,44.90
2018-07-07T19:43:32.355Z,45.10
2018-07-07T19:46:00.548Z,46.00
2018-07-07T19:48:28.787Z,45.60
2018-07-07T19:50:57.085Z,45.80
2018-07-07T19:53:25.289Z,46.10
2018-07-07T19:55:53.505Z,46.30
2018-07-07T19:58:22.209Z,46.50
2018-07-07T20:03:18.405Z,46.80
2018-07-07T20:05:46.941Z,47.10
2018-07-07T20:08:15.365Z,47.20
2018-07-07T20:10:43.643Z,47.40
2018-07-07T20:13:11.899Z,47.60
2018-07-07T20:15:51.507Z,47.90
2018-07-07T20:18:19.769Z,48.10
2018-07-07T20:22:00.408Z,48.30
2018-07-07T20:27:12.855Z,48.70
2018-07-07T20:29:41.075Z,49.00
2018-07-07T20:33:16.780Z,49.20
2018-07-07T20:35:44.989Z,49.30
2018-07-07T20:38:13.265Z,50.20
2018-07-07T20:40:41.471Z,49.80
2018-07-07T20:43:09.727Z,49.90
2018-07-07T20:45:38.011Z,50.10
2018-07-07T20:48:06.207Z,50.10
2018-07-07T20:50:34.393Z,50.20
2018-07-07T20:53:02.595Z,50.30
2018-07-07T20:55:31.042Z,50.70
2018-07-07T20:57:59.219Z,50.50
2018-07-07T21:00:27.438Z,50.70
2018-07-07T21:02:55.632Z,50.70
2018-07-07T21:05:23.932Z,50.70
2018-07-07T21:07:52.170Z,50.90
2018-07-07T21:10:20.418Z,50.90
2018-07-07T21:12:48.710Z,51.20
2018-07-07T21:15:16.900Z,51.80
2018-07-07T21:17:45.212Z,51.00
2018-07-07T21:20:13.509Z,50.90
2018-07-07T21:25:10.417Z,51.10
2018-07-07T21:27:38.686Z,51.10
2018-07-07T21:30:06.967Z,51.20
2018-07-07T21:32:35.156Z,51.40
2018-07-07T21:35:03.376Z,51.60
2018-07-07T21:37:31.630Z,51.80
2018-07-07T21:39:59.890Z,51.90
2018-07-07T21:42:28.134Z,52.10
2018-07-07T21:44:56.373Z,52.40
2018-07-07T21:47:24.656Z,52.50
2018-07-07T21:49:52.946Z,52.70
2018-07-07T21:52:21.216Z,52.70
2018-07-07T21:54:49.475Z,52.70
2018-07-07T21:57:23.105Z,53.10
2018-07-07T21:59:51.384Z,53.00
2018-07-07T22:02:24.903Z,53.20
2018-07-07T22:04:58.534Z,53.30
2018-07-07T22:10:00.294Z,53.40
2018-07-07T22:12:28.622Z,53.50
2018-07-07T22:17:24.902Z,54.00
2018-07-07T22:19:53.180Z,54.20
2018-07-07T22:22:21.458Z,54.20
2018-07-07T22:24:49.750Z,54.30
2018-07-07T22:27:18.224Z,54.50
2018-07-07T22:29:46.430Z,54.60
2018-07-07T22:32:20.130Z,54.80
2018-07-07T22:34:48.396Z,55.00
2018-07-07T22:37:16.748Z,55.20
2018-07-07T22:42:14.752Z,55.60
2018-07-07T22:44:44.062Z,56.10
2018-07-07T22:47:12.597Z,56.10
2018-07-07T22:49:40.951Z,56.20
2018-07-07T22:52:10.030Z,56.50
2018-07-07T22:54:38.334Z,56.60
2018-07-07T22:57:06.800Z,56.80
2018-07-07T22:59:34.965Z,56.80
2018-07-07T23:04:31.278Z,56.80
2018-07-07T23:06:59.570Z,56.80
2018-07-07T23:09:27.784Z,57.00
2018-07-07T23:11:55.962Z,57.80
2018-07-07T23:16:52.368Z,58.50
2018-07-07T23:19:20.577Z,58.80
2018-07-07T23:21:48.844Z,58.70
2018-07-07T23:24:17.093Z,59.10
2018-07-07T23:26:45.289Z,59.40
2018-07-07T23:29:13.560Z,60.00
2018-07-07T23:31:41.781Z,60.80
2018-07-07T23:34:09.975Z,61.30
2018-07-07T23:36:38.225Z,61.30
2018-07-07T23:39:06.714Z,61.70
2018-07-07T23:44:03.003Z,62.10
2018-07-07T23:46:31.264Z,62.20
2018-07-07T23:48:59.512Z,62.20
2018-07-07T23:51:27.824Z,62.60
2018-07-07T23:53:56.060Z,62.50
2018-07-07T23:56:24.326Z,62.90
2018-07-07T23:58:52.580Z,62.90
